< < Back
Terminal Aerodrome Forecast


Current Version              Previous Versions:   1  2  3  4  5  6  7  8  9  

Terminal Aerodrome Forecast

423
FTUS42 KGSP 030539
TAFAND
TAF
KAND 030539Z 0306/0406 06009KT P6SM OVC060
     FM030800 06010KT P6SM OVC030
     FM031000 06010KT 5SM -RA OVC015
      TEMPO 0311/0312 3SM -RADZ BKN008 OVC014
     FM031200 06009KT 5SM -RA OVC008
     FM031600 06006KT 4SM -RA OVC005
     FM040000 07004KT 3SM BR OVC003=

Latest METAR

835
SAUS70 KWBC 031500 RRF
MTRAND
METAR KAND 031456Z AUTO 06010KT 6SM -RA BR OVC015 06/04 A3030 RMK AO2
RAE14B37 SLP258 P0000 60000 T00610039 50009


USA.gov is the U.S. government's official web portal to all federal, state and local government web resources and services.